Portada
METAR-TAF:

METAR-TAF

Aeroports :

Fort Richardson, Alaska, Estats Units d'Amèrica

latitud: 61-15-45N, longitud: 149-39-17W, altitud: 115 m

Observació

L'informe es va fer fa 17 minuts, a les 13:58 UTC
Vent calma
Temperatura 0°C
Humitat 93%
Pressió 991 hPa
Visibilitat: 9.7 km
Cel ennuvolat a una alçada de 2300 ft
Cel cobert a una alçada de 3500 ft
(lleu) gel granulat, boirina

METAR: PAFR 221358Z AUTO 00000KT 6SM -PL BR BKN023 OVC035 00/M01 A2925 RMK AO2 CIG 018V024 SLP913 P0000 T10021012

Hora: 06:15 (14:15 UTC)


TAF: manca

Observacions i pronòstics meteorològics de més de 4000 aeroports (METAR i TAF).

Les estacions disponibles són els punts grocs i vermells al mapa.

Posi el ratolí al punt desitjat per veure el nom de l'estació.

Feu clic per veure les observacions i els pronòstics meteorològics.

Per canviar el mapa: feu clic els botons verds amb una creu de color negre per apropar; al botó verd amb un guió per allunyar la imatge; o en les fletxes verdes per a mapes adjacents.


METAR-TAF: